x

La Perouse Bank (46206) Wave Buoy

4:00am - Mon 1st Sep 2014 All times are PDT. -7 hours from GMT.

  • Sig Wave height 3.3ft
  • Peak Period 9s
  • Wind
    11mph, 13mph gusts
  • Sea Temp 60°f
  • 空気 Temp 59°f
  • Sea Pressure 1017.5mb
  • La Perouse Bank
  • La Perouse Bank

More Historic Weather Station data

Upgrade to MSW Pro to gain access to the past 30 days of data for over 8000 Wavebouys and Weather Stations around the globe.

Join Pro

Comparision Forecast

View Surf forecast
   
Mon 09/01 4:00am 3.5ft 9s 11 13 mph 1017.5mb 60f 59f
3:00am 3.5ft 10s 11 16 mph 1017.6mb 60f 58f
2:00am 3.5ft 10s 13 16 mph 1017.7mb 60f 58f
1:00am 3.5ft 9s 13 16 mph 1018mb 60f 58f
12:00am 4ft 9s 11 13 mph 1017.9mb 60f 59f
Sun 08/31 11:00pm 3.5ft 9s 7 9 mph 1017.8mb 60f 60f
10:00pm 4.5ft 9s 7
mph
1017.8mb 60f 60f
9:00pm 4.5ft 10s 4
mph
1017.8mb 60f 60f
8:00pm 4.5ft 9s 7 9 mph 1017.3mb 61f 60f
7:00pm 4.5ft 10s 4
mph
1017.7mb 61f 60f
6:00pm 4.5ft 10s 4
mph
1017.6mb 61f 60f
5:00pm 4.5ft 10s 2 4 mph 1017.5mb 60f 60f
3:00pm 4.5ft 10s 7
mph
1017.7mb 60f 58f
2:00pm 4.5ft 10s 7
mph
1018.4mb 60f 57f
1:00pm 4.5ft 10s 9
mph
1018.4mb 60f 56f
12:00pm 4.5ft 9s 9 11 mph 1018.4mb 60f 56f
11:00am 5ft 9s 9 13 mph 1018.2mb 60f 56f
10:00am 4.5ft 11s 9 13 mph 1017.9mb 60f 56f
9:00am 5ft 10s 9 11 mph 1017.5mb 60f 57f
8:00am 5.5ft 10s 7 9 mph 1016.9mb 60f 57f
7:00am 6ft 12s 4 7 mph 1016.8mb 60f 57f
6:00am 5.5ft 11s  -  mph 1016.5mb 60f 59f
5:00am 6ft 10s 2 4 mph 1016.3mb 60f 59f
4:00am 6ft 11s 4
mph
1016.2mb 60f 59f
3:00am 5.5ft 11s 4 7 mph 1016.2mb 60f 59f
2:00am 6ft 11s 7
mph
1015.8mb 60f 60f
1:00am 5.5ft 9s 4 7 mph 1015.7mb 60f 60f
12:00am 6ft 11s 7
mph
1015.5mb 60f 59f
Sat 08/30 11:00pm 6ft 11s 2 4 mph 1015.1mb 60f 60f
10:00pm 6ft 11s 7 9 mph 1015.1mb 60f 60f
9:00pm 5.5ft 11s 9 11 mph 1015.1mb 60f 60f
8:00pm 6ft 11s 9 11 mph 1014.4mb 61f 60f
7:00pm 5.5ft 10s 9 11 mph 1014.1mb 61f 61f
6:00pm 5.5ft 11s 11 13 mph 1014.1mb 61f 62f
5:00pm 5.5ft 11s 9 11 mph 1013.9mb 61f 62f
4:00pm 6ft 12s 9 11 mph 1014mb 61f 62f
3:00pm 6ft 11s 9 11 mph 1013.7mb 61f 62f
2:00pm 5.5ft 10s 9 11 mph 1013.7mb 61f 61f
1:00pm 6ft 11s 4
mph
1013.6mb 61f 60f
12:00pm 7ft 11s  -  2 mph 1013.5mb 61f 60f
11:00am 6ft 10s 2 4 mph 1013.4mb 60f 58f
10:00am 6ft 11s 7
mph
1013.1mb 60f 60f
9:00am 5ft 8s 7 9 mph 1012.8mb 59f 60f
8:00am 5ft 8s 7 9 mph 1012.5mb 59f 59f
7:00am 4.5ft 14s 9
mph
1012.4mb 59f 59f
6:00am 4.5ft 13s 7 9 mph 1012.4mb 59f 57f
5:00am 4.5ft 9s 7 9 mph 1012.3mb 59f 57f
4:00am 4.5ft 14s 9
mph
1012.3mb 59f 57f
3:00am 4ft 14s 9 11 mph 1012.7mb 59f 58f
2:00am 4ft 16s 7 9 mph 1013.1mb 59f 58f
1:00am 3.5ft 14s 9 11 mph 1013.6mb 59f 57f
12:00am 3.5ft 14s 9 11 mph 1013.8mb 59f 57f
Fri 08/29 11:00pm 3.5ft 14s 9 13 mph 1014.1mb 59f 56f
10:00pm 3.5ft 12s 13
mph
1014.3mb 59f 56f
9:00pm 3.5ft 14s 13 16 mph 1014.5mb 59f 56f
8:00pm 3ft 14s 13 16 mph 1014.5mb 59f 57f
7:00pm 3ft 14s 13 16 mph 1014.6mb 60f 57f
6:00pm 3ft 14s 13 18 mph 1014.8mb 60f 57f
5:00pm 3ft 14s 16 18 mph 1014.9mb 60f 56f
4:00pm 3ft 15s 13 16 mph 1015mb 59f 56f
3:00pm 3ft 15s 16 18 mph 1015mb 60f 56f
2:00pm 3ft 15s 16 18 mph 1015.3mb 60f 56f
1:00pm 3ft 14s 13 16 mph 1015.4mb 60f 56f
12:00pm 3.5ft 15s 9 11 mph 1015.5mb 60f 56f
11:00am 3ft 14s 16 20 mph 1015mb 60f 56f
10:00am 3ft 15s 16 20 mph 1015mb 60f 59f
9:00am 3ft 10s 11 13 mph 1015mb 60f 58f
8:00am 3ft 10s 7
mph
1015.1mb 60f 58f
7:00am 2.5ft 10s 4
mph
1014.9mb 60f 58f
6:00am 3.5ft 10s 4
mph
1015mb 60f 59f
5:00am 3ft 16s 2
mph
1015.3mb 60f 59f
4:00am 3ft 10s 4
mph
1015.6mb 60f 59f
3:00am 3.5ft 10s 4 7 mph 1015.8mb 60f 59f
2:00am 3ft 15s 4 7 mph 1016.4mb 60f 59f
1:00am 3.5ft 11s 4 7 mph 1016.6mb 60f 59f
12:00am 3.5ft 10s 7 9 mph 1017.2mb 60f 60f
Thu 08/28 11:00pm 3.5ft 10s 9 11 mph 1017.6mb 60f 60f
10:00pm 4ft 9s 7 9 mph 1017.8mb 60f 60f
9:00pm 4ft 9s 9
mph
1018.4mb 60f 60f
8:00pm 3.5ft 10s 9 11 mph 1018.7mb 60f 60f
7:00pm 3.5ft 10s 9
mph
1018.8mb 60f 60f
6:00pm 3.5ft 10s 11 13 mph 1019.3mb 60f 60f
5:00pm 3.5ft 10s 13 16 mph 1019.5mb 60f 60f
4:00pm 3.5ft 10s 9 11 mph 1019.6mb 58f 60f
3:00pm 3.5ft 10s 11 16 mph 1020mb 58f 60f
2:00pm 3.5ft 10s 7 9 mph 1019.8mb 59f 59f
1:00pm 4ft 16s 4 7 mph 1019.8mb 58f 59f